Hlavní strana
METAR-TAF:

METAR-TAF

Letiště :

Santa Marta, Kolumbie

zeměpisná šířka: 11-08N, zeměpisná délka: 074-14W, výška: 4 m

Aktuální stav počasí

Zpráva byla vytvořena před 52 minutami, v 01:00 UTC
Severoseverovýchodní vítr 10 kt
Teplota 30°C
Vlhkost vzduchu 62%
Tlak 1010 hPa
Viditelnost 10 km a více

METAR: SKSM 260100Z 03010KT 9999 NSC 30/22 A2982

Čas: 20:52 (01:52 UTC)


TAF: chybějící

Stav a předpovědi počasí z více než 4 000 letišť (zprávy METAR a TAF).

Červené a žluté tečky na mapě představují dostupné meteorologické stanice.

Když kurzor umístíte na tečku, zobrazí se název stanice.

Pak kliknutím zobrazíte stav a předpověď počasí.

Chcete-li změnit mapu, kliknutím na zelené tlačítko se znaménkem +mapu přiblížíte, kliknutím na zelené tlačítko se znaménkem – mapu oddálíte a kliknutím na zelené šipky přejdete na sousední mapy.


METAR-TAF: